createdAt,value
2018-02-03T00:01:19.573Z,2.20
2018-02-03T00:02:19.575Z,2.20
2018-02-03T00:04:12.970Z,2.33
2018-02-03T00:05:12.942Z,2.30
2018-02-03T00:07:06.341Z,2.27
2018-02-03T00:08:06.339Z,2.35
2018-02-03T00:09:59.726Z,2.40
2018-02-03T00:10:59.716Z,2.40
2018-02-03T00:12:53.090Z,2.52
2018-02-03T00:13:53.087Z,2.55
2018-02-03T00:15:46.480Z,2.35
2018-02-03T00:16:46.459Z,2.35
2018-02-03T00:18:39.852Z,2.33
2018-02-03T00:19:39.839Z,2.40
2018-02-03T00:21:33.251Z,2.38
2018-02-03T00:22:33.232Z,2.41
2018-02-03T00:24:26.610Z,2.48
2018-02-03T00:25:26.613Z,2.66
2018-02-03T00:27:20.041Z,2.55
2018-02-03T00:28:20.003Z,2.53
2018-02-03T00:30:13.373Z,2.56
2018-02-03T00:31:13.380Z,2.55
2018-02-03T00:33:06.779Z,2.38
2018-02-03T00:34:06.759Z,2.44
2018-02-03T00:36:00.161Z,2.34
2018-02-03T00:37:00.163Z,2.33
2018-02-03T00:38:53.571Z,2.33
2018-02-03T00:39:53.565Z,2.31
2018-02-03T00:41:46.939Z,2.19
2018-02-03T00:42:46.909Z,2.17
2018-02-03T00:44:40.290Z,2.26
2018-02-03T00:45:40.291Z,2.19
2018-02-03T00:47:33.713Z,2.26
2018-02-03T00:48:33.676Z,2.20
2018-02-03T00:50:27.050Z,2.19
2018-02-03T00:51:27.058Z,2.16
2018-02-03T00:53:20.490Z,2.08
2018-02-03T00:54:20.435Z,2.12
2018-02-03T00:56:13.820Z,2.16
2018-02-03T00:57:13.877Z,2.22
2018-02-03T00:59:07.244Z,2.17
2018-02-03T01:00:07.202Z,2.23
2018-02-03T01:02:00.589Z,2.13
2018-02-03T01:03:00.588Z,2.15
2018-02-03T01:04:53.996Z,2.16
2018-02-03T01:05:53.978Z,2.19
2018-02-03T01:07:47.360Z,2.19
2018-02-03T01:08:47.362Z,2.09
2018-02-03T01:10:40.766Z,2.06
2018-02-03T01:11:40.745Z,2.09
2018-02-03T01:13:34.129Z,2.15
2018-02-03T01:14:34.128Z,2.09
2018-02-03T01:16:27.527Z,2.17
2018-02-03T01:17:27.506Z,2.16
2018-02-03T01:19:20.886Z,2.17
2018-02-03T01:20:20.886Z,2.08
2018-02-03T01:22:14.288Z,2.16
2018-02-03T01:23:14.279Z,2.17
2018-02-03T01:25:07.672Z,2.22
2018-02-03T01:26:07.661Z,2.31
2018-02-03T01:28:02.058Z,2.20
2018-02-03T01:29:02.028Z,2.19
2018-02-03T01:30:55.411Z,2.31
2018-02-03T01:31:55.424Z,2.27
2018-02-03T01:33:48.817Z,2.30
2018-02-03T01:34:48.795Z,2.30
2018-02-03T01:36:42.172Z,2.40
2018-02-03T01:37:42.174Z,2.35
2018-02-03T01:39:36.586Z,2.20
2018-02-03T01:40:36.554Z,2.16
2018-02-03T01:42:29.937Z,2.17
2018-02-03T01:43:29.941Z,2.19
2018-02-03T01:45:23.336Z,2.20
2018-02-03T01:46:23.342Z,2.13
2018-02-03T01:48:16.708Z,2.23
2018-02-03T01:49:16.731Z,2.20
2018-02-03T01:51:10.107Z,2.22
2018-02-03T01:52:10.088Z,2.22
2018-02-03T01:54:03.467Z,2.30
2018-02-03T01:55:03.472Z,2.16
2018-02-03T01:56:56.893Z,2.27
2018-02-03T01:57:56.899Z,2.20
2018-02-03T01:59:50.242Z,2.22
2018-02-03T02:00:50.243Z,2.19
2018-02-03T02:02:43.647Z,2.19
2018-02-03T02:03:43.623Z,2.19
2018-02-03T02:05:37.042Z,2.09
2018-02-03T02:06:37.010Z,2.20
2018-02-03T02:08:30.409Z,2.34
2018-02-03T02:09:30.408Z,2.30
2018-02-03T02:11:24.817Z,2.28
2018-02-03T02:12:24.784Z,2.28
2018-02-03T02:14:18.163Z,2.20
2018-02-03T02:15:18.175Z,2.26
2018-02-03T02:17:11.573Z,2.16
2018-02-03T02:18:11.552Z,2.13
2018-02-03T02:20:04.962Z,1.99
2018-02-03T02:21:04.933Z,1.85
2018-02-03T02:22:59.349Z,1.91
2018-02-03T02:23:59.324Z,2.01
2018-02-03T02:25:53.707Z,1.97
2018-02-03T02:26:53.707Z,2.09
2018-02-03T02:28:47.113Z,2.08
2018-02-03T02:29:47.100Z,2.13
2018-02-03T02:31:40.484Z,2.09
2018-02-03T02:32:40.491Z,2.12
2018-02-03T02:34:33.877Z,2.13
2018-02-03T02:35:33.866Z,2.19
2018-02-03T02:37:27.283Z,2.17
2018-02-03T02:38:27.289Z,2.16
2018-02-03T02:40:20.709Z,2.09
2018-02-03T02:41:20.658Z,2.09
2018-02-03T02:43:14.067Z,2.19
2018-02-03T02:44:14.037Z,2.13
2018-02-03T02:46:07.471Z,2.10
2018-02-03T02:47:07.467Z,2.06
2018-02-03T02:49:00.820Z,2.08
2018-02-03T02:50:00.828Z,2.08
2018-02-03T02:51:55.216Z,2.19
2018-02-03T02:52:55.191Z,2.19
2018-02-03T02:54:48.603Z,2.20
2018-02-03T02:55:48.572Z,2.23
2018-02-03T02:57:41.954Z,2.20
2018-02-03T02:58:41.961Z,2.16
2018-02-03T03:00:35.356Z,2.15
2018-02-03T03:01:35.341Z,2.16
2018-02-03T03:03:28.729Z,2.10
2018-02-03T03:04:28.711Z,2.12
2018-02-03T03:06:22.148Z,2.16
2018-02-03T03:07:22.113Z,2.06
2018-02-03T03:09:16.468Z,2.04
2018-02-03T03:10:16.467Z,2.12
2018-02-03T03:12:09.871Z,2.28
2018-02-03T03:13:09.846Z,2.30
2018-02-03T03:15:03.248Z,2.31
2018-02-03T03:16:03.245Z,2.41
2018-02-03T03:17:56.666Z,2.46
2018-02-03T03:18:56.627Z,2.56
2018-02-03T03:20:50.991Z,2.61
2018-02-03T03:21:50.997Z,2.64
2018-02-03T03:23:44.391Z,2.56
2018-02-03T03:24:44.372Z,2.55
2018-02-03T03:26:37.759Z,2.52
2018-02-03T03:27:37.760Z,2.41
2018-02-03T03:29:31.185Z,2.51
2018-02-03T03:30:31.144Z,2.56
2018-02-03T03:32:24.527Z,2.53
2018-02-03T03:33:24.534Z,2.64
2018-02-03T03:35:17.931Z,2.55
2018-02-03T03:36:17.913Z,2.63
2018-02-03T03:38:11.308Z,2.55
2018-02-03T03:39:11.311Z,2.53
2018-02-03T03:41:04.704Z,2.64
2018-02-03T03:42:04.683Z,2.63
2018-02-03T03:43:58.061Z,2.56
2018-02-03T03:44:58.060Z,2.56
2018-02-03T03:46:52.479Z,2.59
2018-02-03T03:47:52.448Z,2.59
2018-02-03T03:49:45.849Z,2.41
2018-02-03T03:50:45.828Z,2.52
2018-02-03T03:52:39.244Z,2.53
2018-02-03T03:53:39.200Z,2.45
2018-02-03T03:55:32.581Z,2.44
2018-02-03T03:56:32.585Z,2.40
2018-02-03T03:58:25.981Z,2.45
2018-02-03T03:59:25.971Z,2.30
2018-02-03T04:01:19.346Z,2.40
2018-02-03T04:02:19.363Z,2.30
2018-02-03T04:04:12.750Z,2.45
2018-02-03T04:05:12.725Z,2.46
2018-02-03T04:07:06.103Z,2.45
2018-02-03T04:08:06.101Z,2.45
2018-02-03T04:10:00.511Z,2.46
2018-02-03T04:11:00.493Z,2.46
2018-02-03T04:12:53.876Z,2.49
2018-02-03T04:13:53.861Z,2.37
2018-02-03T04:15:47.269Z,2.44
2018-02-03T04:16:47.246Z,2.45
2018-02-03T04:18:40.634Z,2.48
2018-02-03T04:19:40.625Z,2.46
2018-02-03T04:21:34.030Z,2.52
2018-02-03T04:22:34.012Z,2.49
2018-02-03T04:24:27.389Z,2.52
2018-02-03T04:25:27.383Z,2.46
2018-02-03T04:27:20.806Z,2.51
2018-02-03T04:28:20.766Z,2.46
2018-02-03T04:30:14.145Z,2.46
2018-02-03T04:31:14.165Z,2.40
2018-02-03T04:33:07.615Z,2.41
2018-02-03T04:34:07.539Z,2.38
2018-02-03T04:36:00.911Z,2.40
2018-02-03T04:37:00.926Z,2.38
2018-02-03T04:38:54.311Z,2.48
2018-02-03T04:39:54.292Z,2.40
2018-02-03T04:41:47.683Z,2.44
2018-02-03T04:42:47.672Z,2.37
2018-02-03T04:44:41.076Z,2.27
2018-02-03T04:45:41.056Z,2.35
2018-02-03T04:47:34.439Z,2.26
2018-02-03T04:48:34.439Z,2.38
2018-02-03T04:50:27.842Z,2.31
2018-02-03T04:51:27.820Z,2.27
2018-02-03T04:53:21.221Z,2.30
2018-02-03T04:54:21.200Z,2.33
2018-02-03T04:56:14.624Z,2.28
2018-02-03T04:57:14.584Z,2.27
2018-02-03T04:59:07.964Z,2.31
2018-02-03T05:00:08.009Z,2.30
2018-02-03T05:02:01.389Z,2.31
2018-02-03T05:03:01.346Z,2.31
2018-02-03T05:04:54.740Z,2.33
2018-02-03T05:05:54.732Z,2.23
2018-02-03T05:07:48.133Z,2.17
2018-02-03T05:08:48.130Z,2.19
2018-02-03T05:10:41.492Z,2.15
2018-02-03T05:11:41.493Z,2.26
2018-02-03T05:13:34.929Z,2.27
2018-02-03T05:14:34.874Z,2.26
2018-02-03T05:16:28.270Z,2.16
2018-02-03T05:17:28.269Z,2.19
2018-02-03T05:19:21.668Z,2.20
2018-02-03T05:20:21.648Z,2.23
2018-02-03T05:22:15.024Z,2.17
2018-02-03T05:23:15.024Z,2.22
2018-02-03T05:25:08.436Z,2.34
2018-02-03T05:26:08.419Z,2.34
2018-02-03T05:28:01.794Z,2.31
2018-02-03T05:29:01.797Z,2.30
2018-02-03T05:30:55.213Z,2.27
2018-02-03T05:31:55.188Z,2.31
2018-02-03T05:33:48.559Z,2.31
2018-02-03T05:34:48.561Z,2.35
2018-02-03T05:36:41.963Z,2.33
2018-02-03T05:37:41.939Z,2.35
2018-02-03T05:39:35.347Z,2.31
2018-02-03T05:40:35.328Z,2.30
2018-02-03T05:42:28.757Z,2.28
2018-02-03T05:43:28.701Z,2.31
2018-02-03T05:45:22.099Z,2.22
2018-02-03T05:46:22.106Z,2.17
2018-02-03T05:48:15.484Z,2.15
2018-02-03T05:49:15.477Z,2.10
2018-02-03T05:51:08.847Z,2.06
2018-02-03T05:52:08.849Z,2.09
2018-02-03T05:54:02.289Z,2.08
2018-02-03T05:55:02.286Z,2.08
2018-02-03T05:56:55.681Z,2.06
2018-02-03T05:57:55.654Z,2.12
2018-02-03T05:59:50.025Z,2.16
2018-02-03T06:00:50.043Z,2.19
2018-02-03T06:02:43.428Z,2.10
2018-02-03T06:03:43.408Z,2.09
2018-02-03T06:05:36.793Z,2.08
2018-02-03T06:06:36.803Z,2.15
2018-02-03T06:08:30.201Z,2.04
2018-02-03T06:09:30.177Z,1.87
2018-02-03T06:11:23.559Z,1.78
2018-02-03T06:12:23.560Z,1.85
2018-02-03T06:14:16.981Z,1.68
2018-02-03T06:15:16.937Z,1.73
2018-02-03T06:17:10.312Z,1.68
2018-02-03T06:18:10.313Z,1.75
2018-02-03T06:20:04.714Z,1.68
2018-02-03T06:21:04.701Z,1.71
2018-02-03T06:22:58.070Z,1.75
2018-02-03T06:23:58.079Z,1.65
2018-02-03T06:25:51.468Z,1.83
2018-02-03T06:26:51.449Z,1.85
2018-02-03T06:28:44.827Z,2.02
2018-02-03T06:29:44.829Z,2.02
2018-02-03T06:31:38.290Z,1.93
2018-02-03T06:32:38.275Z,2.01
2018-02-03T06:34:31.664Z,2.02
2018-02-03T06:35:31.645Z,2.04
2018-02-03T06:37:25.047Z,2.01
2018-02-03T06:38:25.034Z,1.83
2018-02-03T06:40:18.418Z,1.97
2018-02-03T06:41:18.409Z,2.06
2018-02-03T06:43:11.806Z,2.12
2018-02-03T06:44:11.794Z,2.17
2018-02-03T06:46:05.192Z,2.08
2018-02-03T06:47:05.164Z,2.15
2018-02-03T06:48:58.587Z,2.12
2018-02-03T06:49:58.546Z,2.12
2018-02-03T06:51:51.927Z,2.20
2018-02-03T06:52:51.924Z,2.08
2018-02-03T06:54:45.351Z,2.13
2018-02-03T06:55:45.343Z,2.10
2018-02-03T06:57:39.709Z,2.08
2018-02-03T06:58:39.765Z,2.16
2018-02-03T07:00:33.110Z,2.17
2018-02-03T07:01:33.087Z,2.12
2018-02-03T07:03:26.467Z,2.15
2018-02-03T07:04:26.468Z,2.17
2018-02-03T07:06:19.868Z,1.80
2018-02-03T07:07:19.852Z,1.71
2018-02-03T07:09:13.226Z,1.71
2018-02-03T07:10:13.239Z,1.68
2018-02-03T07:12:06.639Z,1.71
2018-02-03T07:13:06.626Z,1.60
2018-02-03T07:15:00.015Z,1.61
2018-02-03T07:15:59.992Z,1.50
2018-02-03T07:17:53.375Z,1.65
2018-02-03T07:18:53.391Z,1.72
2018-02-03T07:20:46.768Z,1.79
2018-02-03T07:21:46.756Z,1.76
2018-02-03T07:23:40.126Z,1.78
2018-02-03T07:24:40.127Z,1.68
2018-02-03T07:26:33.525Z,1.68
2018-02-03T07:27:33.519Z,1.61
2018-02-03T07:29:26.884Z,1.43
2018-02-03T07:30:26.887Z,1.51
2018-02-03T07:32:20.287Z,1.46
2018-02-03T07:33:20.276Z,1.60
2018-02-03T07:35:13.647Z,1.62
2018-02-03T07:36:13.647Z,1.69
2018-02-03T07:38:07.058Z,1.68
2018-02-03T07:39:07.036Z,1.75
2018-02-03T07:41:00.421Z,1.68
2018-02-03T07:42:00.420Z,1.61
2018-02-03T07:43:53.854Z,1.64
2018-02-03T07:44:53.804Z,1.72
2018-02-03T07:46:47.182Z,1.79
2018-02-03T07:47:47.182Z,1.71
2018-02-03T07:49:40.618Z,1.82
2018-02-03T07:50:40.572Z,1.76
2018-02-03T07:52:33.952Z,1.80
2018-02-03T07:53:33.960Z,1.78
2018-02-03T07:55:28.369Z,1.76
2018-02-03T07:56:28.341Z,1.78
2018-02-03T07:58:21.731Z,1.79
2018-02-03T07:59:21.714Z,1.73
2018-02-03T08:01:15.117Z,1.68
2018-02-03T08:02:15.098Z,1.65
2018-02-03T08:04:08.480Z,1.72
2018-02-03T08:05:08.479Z,1.72
2018-02-03T08:07:01.874Z,1.75
2018-02-03T08:08:01.853Z,1.68
2018-02-03T08:09:55.263Z,1.69
2018-02-03T08:10:55.230Z,1.64
2018-02-03T08:12:48.629Z,1.72
2018-02-03T08:13:48.612Z,1.68
2018-02-03T08:15:42.025Z,1.75
2018-02-03T08:16:41.992Z,1.72
2018-02-03T08:18:35.372Z,1.76
2018-02-03T08:19:35.370Z,1.80
2018-02-03T08:21:28.768Z,1.80
2018-02-03T08:22:28.746Z,1.72
2018-02-03T08:24:22.126Z,1.76
2018-02-03T08:25:22.130Z,1.80
2018-02-03T08:27:15.529Z,1.82
2018-02-03T08:28:15.553Z,1.73
2018-02-03T08:30:08.887Z,1.76
2018-02-03T08:31:08.884Z,1.73
2018-02-03T08:33:02.277Z,1.85
2018-02-03T08:34:02.257Z,1.80
2018-02-03T08:35:55.636Z,1.85
2018-02-03T08:36:55.649Z,1.75
2018-02-03T08:38:49.034Z,1.73
2018-02-03T08:39:49.011Z,1.82
2018-02-03T08:41:42.390Z,1.87
2018-02-03T08:42:42.395Z,1.91
2018-02-03T08:44:35.790Z,1.99
2018-02-03T08:45:35.767Z,2.06
2018-02-03T08:47:29.149Z,2.06
2018-02-03T08:48:29.144Z,1.97
2018-02-03T08:50:22.544Z,2.09
2018-02-03T08:51:22.523Z,2.02
2018-02-03T08:53:15.903Z,2.15
2018-02-03T08:54:15.904Z,2.12
2018-02-03T08:56:09.303Z,2.15
2018-02-03T08:57:09.283Z,2.22
2018-02-03T08:59:02.660Z,2.17
2018-02-03T09:00:02.668Z,2.22
2018-02-03T09:01:56.062Z,2.13
2018-02-03T09:02:56.037Z,2.16
2018-02-03T09:04:49.417Z,2.31
2018-02-03T09:05:49.420Z,2.28
2018-02-03T09:07:43.815Z,2.35
2018-02-03T09:08:43.802Z,2.45
2018-02-03T09:10:37.180Z,2.38
2018-02-03T09:11:37.192Z,2.31
2018-02-03T09:13:30.574Z,2.31
2018-02-03T09:14:30.560Z,2.27
2018-02-03T09:16:24.062Z,2.41
2018-02-03T09:17:23.942Z,2.31
2018-02-03T09:19:17.363Z,2.44
2018-02-03T09:20:17.321Z,2.38
2018-02-03T09:22:11.725Z,2.55
2018-02-03T09:23:11.699Z,2.58
2018-02-03T09:25:05.087Z,2.74
2018-02-03T09:26:05.090Z,2.81
2018-02-03T09:27:58.499Z,2.67
2018-02-03T09:28:58.479Z,2.82
2018-02-03T09:30:51.859Z,2.92
2018-02-03T09:31:51.861Z,2.97
2018-02-03T09:33:45.294Z,2.85
2018-02-03T09:34:45.274Z,2.89
2018-02-03T09:36:38.665Z,3.02
2018-02-03T09:37:38.665Z,2.94
2018-02-03T09:39:32.064Z,2.81
2018-02-03T09:40:32.046Z,2.89
2018-02-03T09:42:25.446Z,2.89
2018-02-03T09:43:25.444Z,3.05
2018-02-03T09:45:18.859Z,2.91
2018-02-03T09:46:18.835Z,2.98
2018-02-03T09:48:12.215Z,2.88
2018-02-03T09:49:12.220Z,2.89
2018-02-03T09:51:05.623Z,3.06
2018-02-03T09:52:05.595Z,3.13
2018-02-03T09:53:58.978Z,3.24
2018-02-03T09:54:58.985Z,3.20
2018-02-03T09:56:52.379Z,3.16
2018-02-03T09:57:52.359Z,3.05
2018-02-03T09:59:45.741Z,2.97
2018-02-03T10:00:45.745Z,3.09
2018-02-03T10:02:39.148Z,3.06
2018-02-03T10:03:39.128Z,2.97
2018-02-03T10:05:32.513Z,3.07
2018-02-03T10:06:32.521Z,2.95
2018-02-03T10:08:25.910Z,3.07
2018-02-03T10:09:25.900Z,3.21
2018-02-03T10:11:19.296Z,3.39
2018-02-03T10:12:19.287Z,3.42
2018-02-03T10:14:12.682Z,3.57
2018-02-03T10:15:12.664Z,3.47
2018-02-03T10:17:06.055Z,3.40
2018-02-03T10:18:06.063Z,3.46
2018-02-03T10:19:59.464Z,3.42
2018-02-03T10:20:59.438Z,3.36
2018-02-03T10:22:52.818Z,3.23
2018-02-03T10:23:52.819Z,3.28
2018-02-03T10:25:46.295Z,3.46
2018-02-03T10:26:46.283Z,3.39
2018-02-03T10:28:39.659Z,3.57
2018-02-03T10:29:39.660Z,3.65
2018-02-03T10:31:33.065Z,3.61
2018-02-03T10:32:33.043Z,3.61
2018-02-03T10:34:26.432Z,3.82
2018-02-03T10:35:26.438Z,3.78
2018-02-03T10:37:19.838Z,4.04
2018-02-03T10:38:19.824Z,3.88
2018-02-03T10:40:13.200Z,3.75
2018-02-03T10:41:13.207Z,4.06
2018-02-03T10:43:06.613Z,4.26
2018-02-03T10:44:06.594Z,4.22
2018-02-03T10:45:59.975Z,4.54
2018-02-03T10:46:59.980Z,4.54
2018-02-03T10:48:53.380Z,4.43
2018-02-03T10:49:53.369Z,4.04
2018-02-03T10:51:46.795Z,3.90
2018-02-03T10:52:46.780Z,3.65
2018-02-03T10:54:40.165Z,3.71
2018-02-03T10:55:40.200Z,3.60
2018-02-03T10:57:33.528Z,3.75
2018-02-03T10:58:33.534Z,3.70
2018-02-03T11:00:26.959Z,3.85
2018-02-03T11:01:26.916Z,3.68
2018-02-03T11:03:20.298Z,4.58
2018-02-03T11:04:20.297Z,5.09
2018-02-03T11:06:13.702Z,5.49
2018-02-03T11:07:13.685Z,6.28
2018-02-03T11:09:07.068Z,6.56
2018-02-03T11:10:07.069Z,6.98
2018-02-03T11:12:00.475Z,8.15
2018-02-03T11:13:00.459Z,7.58
2018-02-03T11:14:53.843Z,5.95
2018-02-03T11:15:53.847Z,6.99
2018-02-03T11:17:46.758Z,6.30
2018-02-03T11:18:46.744Z,5.98
2018-02-03T11:20:40.162Z,6.16
2018-02-03T11:21:40.142Z,7.01
2018-02-03T11:23:33.030Z,5.73
2018-02-03T11:24:33.031Z,5.27
2018-02-03T11:26:25.944Z,6.86
2018-02-03T11:27:25.929Z,7.04
2018-02-03T11:29:19.317Z,6.62
2018-02-03T11:30:19.322Z,6.32
2018-02-03T11:32:12.742Z,5.71
2018-02-03T11:33:12.727Z,5.40
2018-02-03T11:35:06.158Z,4.86
2018-02-03T11:36:06.122Z,4.77
2018-02-03T11:37:59.529Z,4.64
2018-02-03T11:38:59.514Z,4.72
2018-02-03T11:40:52.901Z,4.75
2018-02-03T11:41:52.909Z,4.86
2018-02-03T11:43:46.311Z,4.72
2018-02-03T11:44:46.295Z,4.76
2018-02-03T11:46:39.681Z,4.69
2018-02-03T11:47:39.684Z,4.51
2018-02-03T11:49:33.091Z,4.59
2018-02-03T11:50:33.072Z,4.83
2018-02-03T11:52:26.457Z,5.32
2018-02-03T11:53:26.460Z,5.43
2018-02-03T11:55:20.862Z,5.17
2018-02-03T11:56:20.845Z,5.14
2018-02-03T11:58:13.743Z,5.37
2018-02-03T11:59:13.736Z,5.40
2018-02-03T12:01:07.140Z,5.50
2018-02-03T12:02:07.124Z,5.56
2018-02-03T12:04:00.505Z,5.38
2018-02-03T12:05:00.513Z,5.59
2018-02-03T12:06:53.915Z,5.43
2018-02-03T12:07:53.899Z,5.45
2018-02-03T12:09:47.285Z,5.77
2018-02-03T12:10:47.289Z,6.19
2018-02-03T12:12:40.690Z,7.01
2018-02-03T12:13:40.672Z,7.15
2018-02-03T12:15:34.055Z,6.56
2018-02-03T12:16:34.060Z,6.80
2018-02-03T12:18:27.467Z,6.01
2018-02-03T12:19:27.448Z,5.41
2018-02-03T12:21:20.840Z,4.91
2018-02-03T12:22:20.846Z,4.62
2018-02-03T12:24:14.297Z,4.25
2018-02-03T12:25:14.274Z,4.39
2018-02-03T12:27:07.660Z,4.54
2018-02-03T12:28:07.668Z,4.75
2018-02-03T12:30:01.080Z,5.27
2018-02-03T12:31:01.088Z,5.01
2018-02-03T12:32:54.455Z,5.07
2018-02-03T12:33:54.470Z,5.04
2018-02-03T12:35:47.857Z,5.20
2018-02-03T12:36:47.847Z,5.17
2018-02-03T12:38:41.277Z,5.20
2018-02-03T12:39:41.277Z,5.30
2018-02-03T12:41:34.720Z,5.22
2018-02-03T12:42:34.674Z,5.25
2018-02-03T12:44:28.068Z,5.28
2018-02-03T12:45:28.062Z,5.28
2018-02-03T12:47:21.477Z,5.43
2018-02-03T12:48:21.456Z,5.28
2018-02-03T12:50:14.862Z,5.30
2018-02-03T12:51:14.843Z,5.43
2018-02-03T12:53:08.246Z,5.48
2018-02-03T12:54:08.229Z,5.37
2018-02-03T12:56:01.618Z,5.78
2018-02-03T12:57:01.627Z,6.00
2018-02-03T12:58:55.026Z,6.13
2018-02-03T12:59:55.013Z,6.01
2018-02-03T13:01:48.437Z,5.98
2018-02-03T13:02:48.412Z,6.03
2018-02-03T13:04:41.800Z,5.73
2018-02-03T13:05:41.798Z,5.66
2018-02-03T13:07:35.237Z,5.86
2018-02-03T13:08:35.202Z,5.86
2018-02-03T13:10:28.609Z,6.44
2018-02-03T13:11:28.602Z,6.32
2018-02-03T13:13:22.008Z,6.32
2018-02-03T13:14:21.999Z,6.25
2018-02-03T13:16:15.377Z,6.43
2018-02-03T13:17:15.380Z,6.32
2018-02-03T13:19:08.787Z,6.30
2018-02-03T13:20:08.771Z,6.25
2018-02-03T13:22:02.153Z,6.01
2018-02-03T13:23:02.157Z,5.75
2018-02-03T13:24:55.564Z,5.70
2018-02-03T13:25:55.546Z,5.78
2018-02-03T13:27:48.935Z,5.67
2018-02-03T13:28:48.941Z,5.64
2018-02-03T13:30:42.348Z,5.53
2018-02-03T13:31:42.330Z,5.52
2018-02-03T13:33:35.715Z,5.38
2018-02-03T13:34:35.727Z,5.23
2018-02-03T13:36:29.122Z,5.17
2018-02-03T13:37:29.104Z,5.20
2018-02-03T13:39:22.502Z,4.89
2018-02-03T13:40:22.508Z,4.88
2018-02-03T13:42:15.914Z,4.91
2018-02-03T13:43:15.888Z,4.91
2018-02-03T13:45:09.319Z,4.80
2018-02-03T13:46:09.285Z,4.84
2018-02-03T13:48:02.670Z,4.77
2018-02-03T13:49:02.670Z,4.46
2018-02-03T13:50:56.089Z,4.42
2018-02-03T13:51:56.077Z,4.61
2018-02-03T13:53:49.455Z,4.64
2018-02-03T13:54:49.466Z,4.59
2018-02-03T13:56:42.892Z,4.72
2018-02-03T13:57:42.860Z,4.72
2018-02-03T13:59:36.276Z,4.79
2018-02-03T14:00:36.273Z,4.70
2018-02-03T14:02:29.676Z,4.91
2018-02-03T14:03:29.658Z,4.80
2018-02-03T14:05:23.040Z,4.77
2018-02-03T14:06:23.043Z,4.62
2018-02-03T14:08:16.449Z,4.61
2018-02-03T14:09:16.428Z,4.76
2018-02-03T14:11:09.815Z,4.73
2018-02-03T14:12:09.813Z,4.65
2018-02-03T14:14:03.222Z,4.62
2018-02-03T14:15:03.199Z,4.76
2018-02-03T14:16:56.580Z,4.72
2018-02-03T14:17:56.594Z,4.77
2018-02-03T14:19:49.994Z,4.65
2018-02-03T14:20:49.986Z,4.55
2018-02-03T14:22:43.356Z,4.62
2018-02-03T14:23:43.358Z,4.65
2018-02-03T14:25:36.793Z,4.36
2018-02-03T14:26:36.758Z,4.21
2018-02-03T14:28:30.144Z,4.18
2018-02-03T14:29:30.144Z,4.32
2018-02-03T14:31:23.566Z,4.32
2018-02-03T14:32:23.538Z,4.33
2018-02-03T14:34:16.910Z,4.29
2018-02-03T14:35:16.907Z,4.25
2018-02-03T14:37:10.323Z,4.18
2018-02-03T14:38:10.312Z,4.21
2018-02-03T14:40:03.686Z,4.32
2018-02-03T14:41:03.679Z,4.24
2018-02-03T14:42:57.088Z,4.32
2018-02-03T14:43:57.074Z,4.28
2018-02-03T14:45:50.464Z,4.22
2018-02-03T14:46:50.456Z,4.18
2018-02-03T14:48:43.864Z,4.10
2018-02-03T14:49:43.840Z,4.26
2018-02-03T14:51:37.251Z,4.21
2018-02-03T14:52:37.235Z,4.18
2018-02-03T14:54:30.628Z,4.04
2018-02-03T14:55:30.611Z,3.94
2018-02-03T14:57:23.994Z,3.90
2018-02-03T14:58:23.996Z,3.82
2018-02-03T15:00:17.400Z,3.70
2018-02-03T15:01:17.387Z,3.61
2018-02-03T15:03:10.765Z,3.85
2018-02-03T15:04:10.800Z,3.76
2018-02-03T15:06:04.167Z,3.65
2018-02-03T15:07:04.171Z,3.64
2018-02-03T15:08:57.538Z,3.71
2018-02-03T15:09:57.535Z,3.58
2018-02-03T15:11:50.944Z,3.88
2018-02-03T15:12:50.930Z,3.89
2018-02-03T15:14:44.310Z,3.97
2018-02-03T15:15:44.307Z,4.06
2018-02-03T15:17:37.720Z,4.12
2018-02-03T15:18:37.691Z,4.07
2018-02-03T15:20:31.076Z,4.10
2018-02-03T15:21:31.077Z,3.90
2018-02-03T15:23:24.484Z,3.72
2018-02-03T15:24:24.461Z,3.71
2018-02-03T15:26:17.869Z,3.70
2018-02-03T15:27:17.853Z,3.70
2018-02-03T15:29:11.269Z,3.65
2018-02-03T15:30:11.270Z,3.61
2018-02-03T15:32:04.698Z,3.54
2018-02-03T15:33:04.653Z,3.49
2018-02-03T15:34:58.044Z,3.52
2018-02-03T15:35:58.044Z,3.46
2018-02-03T15:37:52.460Z,3.47
2018-02-03T15:38:52.423Z,3.42
2018-02-03T15:40:45.804Z,3.58
2018-02-03T15:41:45.803Z,3.65
2018-02-03T15:43:39.217Z,3.52
2018-02-03T15:44:39.186Z,3.64
2018-02-03T15:46:32.585Z,3.67
2018-02-03T15:47:32.572Z,3.60
2018-02-03T15:49:25.975Z,3.54
2018-02-03T15:50:25.954Z,3.57
2018-02-03T15:52:19.333Z,3.67
2018-02-03T15:53:19.349Z,3.65
2018-02-03T15:55:12.745Z,3.70
2018-02-03T15:56:12.716Z,3.67
2018-02-03T15:58:06.102Z,3.83
2018-02-03T15:59:06.104Z,3.86
2018-02-03T16:00:59.521Z,3.70
2018-02-03T16:01:59.489Z,3.75
2018-02-03T16:03:52.872Z,3.52
2018-02-03T16:04:52.864Z,3.44
2018-02-03T16:06:46.336Z,3.40
2018-02-03T16:07:46.270Z,3.34
2018-02-03T16:09:39.655Z,3.18
2018-02-03T16:10:39.657Z,3.27
2018-02-03T16:12:33.088Z,3.46
2018-02-03T16:13:33.064Z,3.52
2018-02-03T16:15:26.431Z,3.57
2018-02-03T16:16:26.429Z,3.60
2018-02-03T16:18:19.827Z,3.70
2018-02-03T16:19:19.811Z,3.67
2018-02-03T16:21:13.189Z,3.67
2018-02-03T16:22:13.190Z,3.67
2018-02-03T16:24:06.592Z,3.68
2018-02-03T16:25:06.573Z,3.65
2018-02-03T16:26:59.960Z,3.71
2018-02-03T16:27:59.956Z,3.72
2018-02-03T16:29:53.355Z,3.79
2018-02-03T16:30:53.364Z,3.71
2018-02-03T16:32:46.749Z,3.70
2018-02-03T16:33:46.718Z,3.67
2018-02-03T16:35:40.097Z,3.70
2018-02-03T16:36:40.124Z,3.67
2018-02-03T16:38:34.497Z,3.70
2018-02-03T16:39:34.481Z,3.64
2018-02-03T16:41:27.874Z,3.70
2018-02-03T16:42:27.871Z,3.61
2018-02-03T16:44:21.263Z,3.70
2018-02-03T16:45:21.299Z,3.68
2018-02-03T16:47:14.680Z,3.65
2018-02-03T16:48:14.627Z,3.62
2018-02-03T16:50:08.026Z,3.46
2018-02-03T16:51:08.006Z,3.30
2018-02-03T16:53:01.384Z,3.20
2018-02-03T16:54:01.386Z,3.25
2018-02-03T16:55:54.785Z,3.42
2018-02-03T16:56:54.767Z,3.40
2018-02-03T16:58:47.652Z,3.42
2018-02-03T16:59:47.650Z,3.40
2018-02-03T17:01:41.047Z,3.50
2018-02-03T17:02:41.031Z,3.46
2018-02-03T17:04:34.409Z,3.43
2018-02-03T17:05:34.410Z,3.52
2018-02-03T17:07:27.822Z,3.49
2018-02-03T17:08:27.801Z,3.27
2018-02-03T17:10:21.182Z,3.25
2018-02-03T17:11:21.181Z,3.28
2018-02-03T17:13:14.580Z,3.31
2018-02-03T17:14:14.562Z,3.42
2018-02-03T17:16:07.950Z,3.28
2018-02-03T17:17:07.950Z,3.28
2018-02-03T17:19:01.364Z,3.18
2018-02-03T17:20:01.332Z,3.13
2018-02-03T17:21:54.716Z,2.94
2018-02-03T17:22:54.711Z,2.94
2018-02-03T17:24:48.111Z,2.95
2018-02-03T17:25:48.092Z,3.02
2018-02-03T17:27:41.470Z,2.95
2018-02-03T17:28:41.476Z,2.95
2018-02-03T17:30:34.875Z,3.21
2018-02-03T17:31:34.854Z,3.18
2018-02-03T17:33:28.236Z,3.20
2018-02-03T17:34:28.235Z,3.07
2018-02-03T17:36:21.634Z,3.02
2018-02-03T17:37:21.615Z,2.87
2018-02-03T17:39:15.024Z,2.74
2018-02-03T17:40:14.999Z,2.76
2018-02-03T17:42:08.448Z,2.59
2018-02-03T17:43:08.388Z,2.52
2018-02-03T17:45:01.763Z,2.67
2018-02-03T17:46:01.761Z,2.64
2018-02-03T17:47:55.160Z,2.74
2018-02-03T17:48:55.140Z,2.77
2018-02-03T17:50:48.516Z,2.97
2018-02-03T17:51:48.517Z,3.09
2018-02-03T17:53:41.425Z,3.16
2018-02-03T17:54:41.406Z,3.20
2018-02-03T17:56:34.785Z,3.24
2018-02-03T17:57:35.361Z,3.24
2018-02-03T17:59:28.188Z,3.28
2018-02-03T18:00:28.172Z,3.27
2018-02-03T18:02:21.548Z,3.21
2018-02-03T18:03:21.550Z,3.21
2018-02-03T18:05:14.950Z,3.10
2018-02-03T18:06:14.939Z,3.06
2018-02-03T18:08:08.321Z,2.92
2018-02-03T18:09:08.311Z,2.94
2018-02-03T18:11:01.720Z,2.88
2018-02-03T18:12:01.703Z,2.92
2018-02-03T18:13:55.081Z,2.91
2018-02-03T18:14:55.083Z,2.88
2018-02-03T18:16:48.480Z,2.87
2018-02-03T18:17:48.460Z,2.89
2018-02-03T18:19:41.867Z,2.76
2018-02-03T18:20:41.848Z,2.76
2018-02-03T18:22:35.248Z,2.69
2018-02-03T18:23:35.222Z,2.70
2018-02-03T18:25:28.599Z,2.71
2018-02-03T18:26:28.608Z,2.69
2018-02-03T18:28:22.014Z,2.59
2018-02-03T18:29:21.985Z,2.56
2018-02-03T18:31:16.359Z,2.53
2018-02-03T18:32:16.364Z,2.52
2018-02-03T18:34:09.763Z,2.48
2018-02-03T18:35:09.745Z,2.55
2018-02-03T18:37:03.123Z,2.49
2018-02-03T18:38:03.121Z,2.44
2018-02-03T18:39:56.521Z,2.52
2018-02-03T18:40:56.500Z,2.45
2018-02-03T18:42:49.883Z,2.49
2018-02-03T18:43:49.925Z,2.58
2018-02-03T18:45:43.278Z,2.51
2018-02-03T18:46:43.261Z,2.59
2018-02-03T18:48:36.639Z,2.59
2018-02-03T18:49:36.657Z,2.58
2018-02-03T18:51:30.048Z,2.52
2018-02-03T18:52:30.032Z,2.52
2018-02-03T18:54:23.410Z,2.58
2018-02-03T18:55:23.408Z,2.59
2018-02-03T18:57:16.809Z,2.58
2018-02-03T18:58:16.805Z,2.59
2018-02-03T19:00:10.169Z,2.56
2018-02-03T19:01:10.172Z,2.55
2018-02-03T19:03:03.577Z,2.61
2018-02-03T19:04:03.559Z,2.52
2018-02-03T19:05:56.933Z,2.53
2018-02-03T19:06:56.943Z,2.55
2018-02-03T19:08:50.339Z,2.59
2018-02-03T19:09:50.316Z,2.56
2018-02-03T19:11:43.684Z,2.56
2018-02-03T19:12:43.685Z,2.59
2018-02-03T19:14:37.096Z,2.59